Time;durP1;ratioP1;P1;durP2;ratioP2;P2;SDS_P1;SDS_P2;PMS_P1;PMS_P2;Temp;Humidity;BMP_temperature;BMP_pressure;BME280_temperature;BME280_humidity;BME280_pressure;Samples;Min_cycle;Max_cycle;Signal;HPM_P1;HPM_P2
2023/04/18 00:00:25;;;;;;;;;25.25;25.25;;;;;9.86;64.91;102797.59;5002090;28;11175;-67
2023/04/18 00:02:52;;;;;;;;;20.25;17.75;;;;;9.89;65.00;102803.56;4998855;28;11754;-69
2023/04/18 00:05:20;;;;;;;;;33.00;29.50;;;;;9.88;64.66;102799.19;4996570;28;11097;-69
2023/04/18 00:07:47;;;;;;;;;22.50;20.00;;;;;9.90;65.17;102799.88;5002853;28;11108;-69
2023/04/18 00:10:13;;;;;;;;;22.00;19.25;;;;;9.94;65.81;102794.22;4989562;28;11112;-69
2023/04/18 00:12:40;;;;;;;;;24.00;22.00;;;;;9.93;65.76;102793.38;4994687;28;10935;-69
2023/04/18 00:15:07;;;;;;;;;27.75;23.00;;;;;9.89;64.72;102797.34;4995592;28;11153;-68
2023/04/18 00:17:37;;;;;;;;;27.75;26.50;;;;;9.72;63.55;102796.16;4994584;28;11215;-69
2023/04/18 00:20:11;;;;;;;;;27.75;26.00;;;;;9.63;60.43;102799.72;4989043;28;11212;-70
2023/04/18 00:22:41;;;;;;;;;22.75;22.50;;;;;9.54;60.49;102798.72;4988547;28;11169;-70
2023/04/18 00:25:09;;;;;;;;;26.75;23.00;;;;;9.56;60.79;102801.25;4989081;28;11236;-66
2023/04/18 00:27:40;;;;;;;;;19.75;19.00;;;;;9.43;59.43;102793.44;4989689;28;11135;-67
2023/04/18 00:30:07;;;;;;;;;21.00;20.50;;;;;9.39;58.85;102810.84;4985801;28;11288;-69
2023/04/18 00:32:36;;;;;;;;;27.00;21.25;;;;;9.35;57.91;102806.72;5005629;28;11003;-70
2023/04/18 00:35:03;;;;;;;;;20.25;19.75;;;;;9.34;57.63;102795.13;4980679;28;11294;-69
2023/04/18 00:37:30;;;;;;;;;27.75;22.75;;;;;9.35;57.44;102802.19;4979611;28;11249;-69
2023/04/18 00:39:56;;;;;;;;;22.75;18.75;;;;;9.34;57.53;102805.03;4990610;28;11271;-69
2023/04/18 00:42:24;;;;;;;;;23.25;19.00;;;;;9.33;57.14;102809.56;4994789;28;11519;-69
2023/04/18 00:44:51;;;;;;;;;20.00;18.50;;;;;9.30;56.67;102801.78;4975810;28;11452;-71
2023/04/18 00:47:17;;;;;;;;;19.25;18.75;;;;;9.34;56.89;102802.34;4985937;28;11015;-68
2023/04/18 00:49:44;;;;;;;;;25.25;20.00;;;;;9.27;55.29;102806.56;4992210;28;10996;-69
2023/04/18 00:52:11;;;;;;;;;21.75;18.75;;;;;9.20;54.84;102808.13;4996504;28;11212;-68
2023/04/18 00:54:40;;;;;;;;;19.25;19.25;;;;;9.16;55.22;102803.03;4993577;28;11157;-68
2023/04/18 00:57:06;;;;;;;;;21.25;20.00;;;;;9.08;53.74;102792.13;4988079;28;11096;-70
2023/04/18 00:59:34;;;;;;;;;23.00;19.00;;;;;9.03;54.72;102793.50;4992135;28;11912;-68
2023/04/18 01:02:02;;;;;;;;;27.25;21.00;;;;;9.00;53.99;102791.94;4966114;28;11485;-70
2023/04/18 01:04:31;;;;;;;;;16.75;14.75;;;;;9.04;54.17;102789.84;4977232;28;11493;-70
2023/04/18 01:06:59;;;;;;;;;23.75;20.25;;;;;9.04;55.03;102793.38;5000120;28;11427;-69
2023/04/18 01:09:28;;;;;;;;;19.00;19.00;;;;;9.06;54.58;102785.16;4991098;28;11429;-69
2023/04/18 01:11:54;;;;;;;;;24.25;20.50;;;;;9.04;54.02;102796.06;4991372;28;11562;-70
2023/04/18 01:14:21;;;;;;;;;27.25;24.25;;;;;9.02;54.67;102792.63;4988443;28;11526;-70
2023/04/18 01:16:47;;;;;;;;;21.50;20.75;;;;;9.02;53.64;102797.16;4999636;28;11508;-71
2023/04/18 01:19:16;;;;;;;;;21.50;20.50;;;;;8.95;54.13;102783.41;4973396;28;12151;-69
2023/04/18 01:21:42;;;;;;;;;31.25;27.25;;;;;8.83;53.04;102785.38;4980719;28;11613;-71
2023/04/18 01:24:16;;;;;;;;;23.25;20.50;;;;;8.86;54.21;102785.09;4997226;28;11438;-70
2023/04/18 01:26:46;;;;;;;;;29.75;26.75;;;;;8.87;54.69;102786.81;4999097;28;11536;-69
2023/04/18 01:29:13;;;;;;;;;18.25;17.00;;;;;8.91;55.15;102777.50;4987099;28;12068;-70
2023/04/18 01:31:40;;;;;;;;;24.50;20.25;;;;;8.86;53.90;102786.94;5001987;28;11182;-70
2023/04/18 01:34:07;;;;;;;;;25.50;21.50;;;;;8.87;53.50;102775.19;4990118;28;12292;-70
2023/04/18 01:36:35;;;;;;;;;24.50;22.75;;;;;8.85;54.39;102775.34;4995876;28;11261;-69
2023/04/18 01:39:02;;;;;;;;;21.75;20.00;;;;;8.80;53.21;102771.38;4997158;28;12479;-70
2023/04/18 01:41:31;;;;;;;;;16.75;16.75;;;;;8.79;54.05;102767.84;5000475;28;11537;-68
2023/04/18 01:43:58;;;;;;;;;21.50;21.25;;;;;8.83;54.17;102766.59;4981152;28;11284;-66
2023/04/18 01:46:25;;;;;;;;;24.25;23.50;;;;;8.86;54.44;102763.59;4988739;28;11469;-67
2023/04/18 01:48:52;;;;;;;;;23.50;19.50;;;;;8.87;54.33;102765.31;4981793;28;11459;-68
2023/04/18 01:51:19;;;;;;;;;28.25;24.50;;;;;8.84;53.67;102767.44;4977235;28;11253;-71
2023/04/18 01:53:46;;;;;;;;;25.50;23.25;;;;;8.74;54.33;102764.69;4978717;28;11585;-70
2023/04/18 01:56:12;;;;;;;;;24.50;23.00;;;;;8.74;54.39;102767.38;4980142;28;11486;-68
2023/04/18 01:58:40;;;;;;;;;26.75;25.75;;;;;8.79;53.96;102767.84;5002787;28;11457;-71
2023/04/18 02:01:07;;;;;;;;;20.75;20.50;;;;;8.82;54.13;102764.00;4990419;28;11453;-70
2023/04/18 02:03:33;;;;;;;;;21.00;20.50;;;;;8.80;54.37;102769.53;5000069;28;11577;-66
2023/04/18 02:06:02;;;;;;;;;28.25;26.25;;;;;8.75;53.86;102766.41;4987906;28;11452;-67
2023/04/18 02:08:31;;;;;;;;;24.75;21.75;;;;;8.75;55.05;102765.53;4978196;28;11516;-69
2023/04/18 02:10:59;;;;;;;;;26.50;23.50;;;;;8.72;53.44;102768.50;4996057;28;11427;-70
2023/04/18 02:13:26;;;;;;;;;21.00;21.00;;;;;8.72;53.82;102764.00;5010650;28;11508;-69
2023/04/18 02:15:53;;;;;;;;;23.00;22.75;;;;;8.64;53.91;102756.59;4993746;28;11423;-68
2023/04/18 02:18:20;;;;;;;;;27.00;25.75;;;;;8.63;54.35;102764.81;4978274;28;11617;-68
2023/04/18 02:20:47;;;;;;;;;25.50;22.00;;;;;8.60;53.94;102782.03;4993994;28;11433;-71
2023/04/18 02:23:14;;;;;;;;;23.25;20.50;;;;;8.55;53.68;102768.16;5007290;28;11464;-69
2023/04/18 02:25:40;;;;;;;;;25.50;21.75;;;;;8.50;53.52;102764.16;4969380;28;11560;-70
2023/04/18 02:28:08;;;;;;;;;27.50;22.75;;;;;8.50;54.04;102770.38;4999488;28;11484;-69
2023/04/18 02:30:34;;;;;;;;;32.25;27.00;;;;;8.48;54.04;102764.28;4996835;28;11430;-70
2023/04/18 02:33:01;;;;;;;;;26.50;22.50;;;;;8.49;53.86;102759.78;4989698;28;11593;-70
2023/04/18 02:35:28;;;;;;;;;30.00;22.25;;;;;8.49;54.31;102759.78;4991439;28;11528;-69
2023/04/18 02:37:54;;;;;;;;;21.00;20.75;;;;;8.47;54.54;102756.34;4999609;28;11523;-70
2023/04/18 02:40:21;;;;;;;;;26.25;23.50;;;;;8.50;54.02;102756.09;5000889;28;11421;-70
2023/04/18 02:42:47;;;;;;;;;23.25;20.00;;;;;8.54;54.75;102761.06;5003946;28;11475;-70
2023/04/18 02:45:13;;;;;;;;;30.75;28.00;;;;;8.58;55.03;102761.66;4995497;28;11602;-71
2023/04/18 02:47:41;;;;;;;;;30.00;24.25;;;;;8.55;54.25;102761.94;4997245;28;11453;-70
2023/04/18 02:50:19;;;;;;;;;27.75;25.50;;;;;8.53;54.90;102756.69;4992350;28;11430;-71
2023/04/18 02:52:46;;;;;;;;;30.00;24.75;;;;;8.45;54.38;102761.88;4989973;28;11493;-71
2023/04/18 02:55:13;;;;;;;;;28.00;22.25;;;;;8.41;55.36;102755.91;4995670;28;11499;-70
2023/04/18 02:57:42;;;;;;;;;25.25;19.75;;;;;8.51;56.10;102747.94;4990306;28;11570;-69
2023/04/18 03:00:37;;;;;;;;;29.25;26.25;;;;;8.56;55.66;102755.59;4999451;28;11412;-70
2023/04/18 03:03:22;;;;;;;;;25.75;23.00;;;;;8.57;55.61;102768.00;5001892;28;11447;-69
2023/04/18 03:05:57;;;;;;;;;22.25;22.25;;;;;8.52;56.66;102768.41;4979837;28;11474;-70
2023/04/18 03:08:23;;;;;;;;;30.75;27.75;;;;;8.37;57.60;102769.75;4981395;28;11530;-69
2023/04/18 03:10:50;;;;;;;;;30.50;24.00;;;;;8.38;58.45;102763.38;4993895;28;11428;-69
2023/04/18 03:13:20;;;;;;;;;22.25;20.00;;;;;8.35;58.32;102758.28;4980755;28;11476;-71
2023/04/18 03:15:47;;;;;;;;;20.50;18.00;;;;;8.31;58.44;102763.03;4971030;28;11458;-70
2023/04/18 03:18:14;;;;;;;;;30.25;24.00;;;;;8.24;57.65;102756.50;5001535;28;12100;-68
2023/04/18 03:20:42;;;;;;;;;26.00;24.50;;;;;8.23;58.50;102760.16;4992033;28;11517;-71
2023/04/18 03:23:09;;;;;;;;;28.75;24.50;;;;;8.26;58.55;102767.94;4986727;28;11440;-70
2023/04/18 03:25:36;;;;;;;;;24.75;24.50;;;;;8.28;58.20;102765.97;4980232;28;11448;-69
2023/04/18 03:28:04;;;;;;;;;21.50;20.25;;;;;8.24;58.42;102761.88;4976922;28;11449;-70
2023/04/18 03:30:32;;;;;;;;;30.75;28.25;;;;;8.22;57.64;102776.38;5001125;28;11447;-70
2023/04/18 03:33:01;;;;;;;;;28.50;25.50;;;;;8.17;58.72;102771.41;4991124;28;11476;-69
2023/04/18 03:35:28;;;;;;;;;31.75;27.00;;;;;8.14;57.44;102763.63;4965740;28;11541;-69
2023/04/18 03:37:55;;;;;;;;;29.00;27.00;;;;;8.05;57.50;102769.78;4998398;28;11551;-71
2023/04/18 03:40:29;;;;;;;;;24.00;23.25;;;;;8.00;57.91;102767.50;4970397;28;11542;-70
2023/04/18 03:43:01;;;;;;;;;26.25;25.00;;;;;7.93;58.53;102767.16;5001655;28;11427;-70
2023/04/18 03:45:27;;;;;;;;;30.50;28.25;;;;;7.97;58.03;102766.91;4992078;28;11444;-68
2023/04/18 03:47:54;;;;;;;;;31.50;25.25;;;;;7.98;58.06;102758.75;4998117;28;11556;-70
2023/04/18 03:50:24;;;;;;;;;33.00;30.50;;;;;7.88;57.87;102765.84;4996513;28;11474;-71
2023/04/18 03:52:53;;;;;;;;;26.25;25.00;;;;;7.81;58.95;102770.88;4959001;28;11460;-71
2023/04/18 03:55:19;;;;;;;;;30.75;28.25;;;;;7.82;58.97;102769.03;4991617;28;11565;-69
2023/04/18 03:57:46;;;;;;;;;37.00;31.50;;;;;7.82;59.65;102772.59;4987823;28;11484;-67
2023/04/18 04:00:20;;;;;;;;;28.00;27.25;;;;;7.80;60.67;102773.69;4997974;28;11459;-68
2023/04/18 04:02:56;;;;;;;;;30.25;28.50;;;;;7.86;61.48;102767.81;4980539;28;11458;-70
2023/04/18 04:05:23;;;;;;;;;30.25;25.50;;;;;7.90;61.64;102783.53;4983175;28;11451;-71
2023/04/18 04:07:50;;;;;;;;;26.75;26.00;;;;;7.86;61.83;102776.72;4988689;28;11565;-71
2023/04/18 04:10:17;;;;;;;;;29.00;24.75;;;;;7.84;61.86;102793.91;4992653;28;11611;-71
2023/04/18 04:12:43;;;;;;;;;31.00;26.50;;;;;7.72;60.95;102785.03;5016449;28;11459;-71
2023/04/18 04:15:10;;;;;;;;;30.75;27.50;;;;;7.74;61.54;102784.91;4989593;28;11434;-71
2023/04/18 04:17:42;;;;;;;;;29.75;27.00;;;;;7.73;61.79;102793.94;4988630;28;11464;-70
2023/04/18 04:20:10;;;;;;;;;26.75;24.00;;;;;7.67;62.06;102787.25;4996805;28;11446;-67
2023/04/18 04:22:37;;;;;;;;;35.00;30.50;;;;;7.68;62.47;102795.16;4992758;28;11450;-72
2023/04/18 04:25:04;;;;;;;;;32.50;27.00;;;;;7.61;62.38;102790.44;4994552;28;11460;-71
2023/04/18 04:27:37;;;;;;;;;27.75;26.75;;;;;7.55;63.59;102790.97;4969728;28;11478;-69
2023/04/18 04:30:08;;;;;;;;;31.75;29.25;;;;;7.54;63.67;102789.25;4981523;28;11469;-70
2023/04/18 04:32:38;;;;;;;;;30.25;28.25;;;;;7.47;63.25;102790.75;4981988;28;11450;-70
2023/04/18 04:35:07;;;;;;;;;29.25;23.50;;;;;7.36;63.08;102791.59;4996233;28;12112;-67
2023/04/18 04:37:34;;;;;;;;;27.50;22.75;;;;;7.39;63.63;102783.31;4969682;28;11455;-69
2023/04/18 04:40:18;;;;;;;;;32.25;27.50;;;;;7.37;63.58;102786.16;4976134;28;11461;-70
2023/04/18 04:42:53;;;;;;;;;34.25;27.50;;;;;7.32;64.08;102793.69;4981120;28;11458;-71
2023/04/18 04:45:28;;;;;;;;;33.50;26.00;;;;;7.31;64.74;102793.81;4994915;28;11469;-70
2023/04/18 04:47:55;;;;;;;;;29.00;26.25;;;;;7.32;65.03;102791.00;4974239;28;11507;-70
2023/04/18 04:50:22;;;;;;;;;29.00;27.25;;;;;7.40;64.85;102795.75;4971785;28;11542;-70
2023/04/18 04:52:48;;;;;;;;;32.00;22.25;;;;;7.44;64.66;102787.31;4981817;28;11444;-66
2023/04/18 04:55:16;;;;;;;;;27.75;24.50;;;;;7.44;64.66;102799.88;4997587;28;11440;-67
2023/04/18 04:57:43;;;;;;;;;32.00;27.00;;;;;7.49;64.27;102796.81;5000043;28;11515;-67
2023/04/18 05:00:32;;;;;;;;;34.00;31.50;;;;;7.47;64.52;102790.75;4997527;28;11510;-69
2023/04/18 05:02:59;;;;;;;;;35.50;30.50;;;;;7.38;65.13;102793.19;4988428;28;11440;-66
2023/04/18 05:05:26;;;;;;;;;28.00;24.25;;;;;7.32;65.19;102793.69;4963054;28;11674;-65
2023/04/18 05:07:53;;;;;;;;;31.00;26.75;;;;;7.31;66.56;102808.06;4980430;28;11547;-65
2023/04/18 05:10:20;;;;;;;;;30.75;24.25;;;;;7.36;66.20;102800.50;4997409;28;11466;-65
2023/04/18 05:12:46;;;;;;;;;29.25;28.25;;;;;7.36;65.67;102808.53;4990825;28;11513;-66
2023/04/18 05:15:15;;;;;;;;;22.25;22.25;;;;;7.27;65.47;102803.94;4996157;28;11511;-67
2023/04/18 05:17:41;;;;;;;;;32.75;25.50;;;;;7.24;66.29;102806.84;4981772;28;11552;-67
2023/04/18 05:20:08;;;;;;;;;24.25;20.50;;;;;7.24;66.08;102806.84;4976961;28;11468;-68
2023/04/18 05:22:35;;;;;;;;;23.00;21.75;;;;;7.24;66.74;102814.88;4996358;28;11533;-67
2023/04/18 05:25:02;;;;;;;;;25.00;22.75;;;;;7.31;66.31;102810.75;4998474;28;11501;-66
2023/04/18 05:27:28;;;;;;;;;30.00;28.25;;;;;7.24;66.19;102816.72;4992439;28;11420;-69
2023/04/18 05:29:55;;;;;;;;;34.50;27.00;;;;;7.24;66.84;102811.34;5001454;28;11658;-67
2023/04/18 05:32:21;;;;;;;;;33.25;28.50;;;;;7.18;66.71;102813.56;5005094;28;11428;-68
2023/04/18 05:34:48;;;;;;;;;29.50;19.50;;;;;7.20;66.98;102826.81;4997692;28;11460;-67
2023/04/18 05:37:14;;;;;;;;;24.75;23.00;;;;;7.21;67.04;102828.56;4987648;28;12180;-66
2023/04/18 05:39:40;;;;;;;;;25.00;23.25;;;;;7.23;67.02;102823.91;4998296;28;11542;-68
2023/04/18 05:42:07;;;;;;;;;22.00;19.00;;;;;7.23;67.28;102823.91;4989712;28;11568;-69
2023/04/18 05:44:34;;;;;;;;;33.25;26.50;;;;;7.32;67.06;102831.19;4999551;28;11507;-68
2023/04/18 05:47:00;;;;;;;;;30.25;26.25;;;;;7.27;66.25;102822.69;5009070;28;11462;-66
2023/04/18 05:49:27;;;;;;;;;30.25;26.50;;;;;7.19;66.97;102827.81;4990336;28;11448;-67
2023/04/18 05:51:55;;;;;;;;;27.50;23.50;;;;;7.22;67.20;102829.41;4991748;28;12153;-67
2023/04/18 05:54:23;;;;;;;;;28.50;24.00;;;;;7.25;67.41;102823.78;5001641;28;13326;-67
2023/04/18 05:56:50;;;;;;;;;27.00;23.75;;;;;7.26;67.95;102831.69;5009807;28;11417;-67
2023/04/18 05:59:17;;;;;;;;;27.75;24.50;;;;;7.38;66.79;102836.06;4992554;28;11455;-65
2023/04/18 06:01:43;;;;;;;;;23.50;23.50;;;;;7.43;67.39;102841.03;5009779;28;11446;-67
2023/04/18 06:04:10;;;;;;;;;24.25;18.25;;;;;7.48;67.07;102833.47;5002312;28;11517;-68
2023/04/18 06:06:37;;;;;;;;;29.75;25.25;;;;;7.47;66.79;102833.63;4971875;28;11589;-68
2023/04/18 06:09:03;;;;;;;;;21.75;20.75;;;;;7.49;67.22;102837.00;4972694;28;11559;-67
2023/04/18 06:11:32;;;;;;;;;30.75;25.00;;;;;7.50;67.02;102833.38;4974202;28;11579;-69
2023/04/18 06:13:59;;;;;;;;;27.25;23.50;;;;;7.50;67.30;102839.56;4974229;28;11695;-68
2023/04/18 06:16:25;;;;;;;;;34.25;27.00;;;;;7.51;67.23;102835.91;4974188;28;11634;-68
2023/04/18 06:18:52;;;;;;;;;21.75;19.00;;;;;7.49;67.34;102845.03;4973985;28;11597;-68
2023/04/18 06:21:20;;;;;;;;;27.00;25.00;;;;;7.49;67.06;102843.22;4980156;28;11574;-68
2023/04/18 06:23:46;;;;;;;;;22.50;19.75;;;;;7.46;67.47;102846.16;4993531;28;12268;-68
2023/04/18 06:26:13;;;;;;;;;36.25;30.00;;;;;7.46;66.83;102838.13;4993381;28;11480;-67
2023/04/18 06:28:39;;;;;;;;;24.25;21.75;;;;;7.53;67.58;102838.47;4993750;28;12117;-67
2023/04/18 06:31:07;;;;;;;;;23.25;21.25;;;;;7.58;67.45;102845.16;4993412;28;11477;-69
2023/04/18 06:33:35;;;;;;;;;20.75;19.00;;;;;7.57;67.81;102850.63;4993446;28;11447;-68
2023/04/18 06:36:01;;;;;;;;;29.75;22.25;;;;;7.55;67.28;102848.09;4990266;28;11412;-68
2023/04/18 06:38:28;;;;;;;;;25.00;17.50;;;;;7.51;67.51;102859.19;4993420;28;11417;-67
2023/04/18 06:40:54;;;;;;;;;21.50;19.75;;;;;7.50;68.28;102854.81;4993206;28;11454;-69
2023/04/18 06:43:21;;;;;;;;;26.50;21.25;;;;;7.55;68.12;102850.75;4993318;28;11509;-67
2023/04/18 06:45:49;;;;;;;;;28.50;26.00;;;;;7.58;67.23;102857.72;4991514;28;12205;-68
2023/04/18 06:48:15;;;;;;;;;23.25;20.25;;;;;7.52;67.63;102858.19;4991877;28;11475;-67
2023/04/18 06:50:42;;;;;;;;;27.50;25.75;;;;;7.49;67.79;102855.75;4992476;28;11409;-66
2023/04/18 06:53:09;;;;;;;;;27.00;21.50;;;;;7.53;68.05;102871.47;4958413;28;12429;-68
2023/04/18 06:55:35;;;;;;;;;25.25;23.50;;;;;7.56;68.25;102859.66;4973135;28;11646;-68
2023/04/18 06:58:02;;;;;;;;;21.25;19.00;;;;;7.61;67.63;102862.81;4973602;28;11540;-67
2023/04/18 07:00:28;;;;;;;;;27.00;23.25;;;;;7.65;68.39;102864.25;4973568;28;11554;-68
2023/04/18 07:02:55;;;;;;;;;19.50;19.25;;;;;7.67;67.60;102862.31;4973294;28;11547;-68
2023/04/18 07:05:21;;;;;;;;;22.00;19.50;;;;;7.72;67.39;102881.56;4974014;28;11642;-66
2023/04/18 07:07:48;;;;;;;;;20.75;20.50;;;;;7.68;67.47;102866.69;4986117;28;11532;-68
2023/04/18 07:10:14;;;;;;;;;20.25;19.75;;;;;7.74;67.00;102863.53;4973265;28;11655;-67
2023/04/18 07:12:41;;;;;;;;;19.75;19.75;;;;;7.80;67.99;102854.97;4973492;28;11547;-69
2023/04/18 07:15:08;;;;;;;;;24.75;20.50;;;;;7.92;67.21;102850.41;4973001;28;11579;-67
2023/04/18 07:17:34;;;;;;;;;22.00;19.75;;;;;8.07;67.24;102854.50;4973254;28;11535;-67
2023/04/18 07:20:00;;;;;;;;;23.75;20.00;;;;;8.08;66.82;102860.72;4972230;28;11547;-67
2023/04/18 07:22:27;;;;;;;;;18.75;18.00;;;;;8.13;67.41;102855.81;4975987;28;11871;-67
2023/04/18 07:24:53;;;;;;;;;23.50;21.75;;;;;8.13;66.46;102858.50;4955399;28;11577;-68
2023/04/18 07:27:20;;;;;;;;;19.75;19.00;;;;;8.09;66.10;102857.06;4985887;28;11554;-67
2023/04/18 07:29:46;;;;;;;;;24.25;20.50;;;;;8.15;66.85;102856.56;4992636;28;11558;-67
2023/04/18 07:32:12;;;;;;;;;27.50;22.00;;;;;8.17;66.15;102855.41;4992434;28;11566;-68
2023/04/18 07:34:39;;;;;;;;;21.50;15.00;;;;;8.15;66.26;102860.06;4992134;28;11447;-67
2023/04/18 07:37:06;;;;;;;;;23.50;19.75;;;;;8.19;65.81;102863.38;4992399;28;11243;-68
2023/04/18 07:39:34;;;;;;;;;23.00;19.00;;;;;8.14;66.39;102865.56;4992338;28;12217;-68
2023/04/18 07:42:03;;;;;;;;;20.75;15.75;;;;;8.13;66.59;102861.19;4987320;28;11416;-68
2023/04/18 07:44:29;;;;;;;;;29.00;26.00;;;;;8.13;66.78;102855.81;4991839;28;11486;-67
2023/04/18 07:46:56;;;;;;;;;23.50;19.25;;;;;8.23;67.12;102848.72;4992517;28;11513;-67
2023/04/18 07:49:22;;;;;;;;;21.75;18.25;;;;;8.24;67.18;102861.13;4992062;28;11439;-68
2023/04/18 07:51:49;;;;;;;;;18.00;17.00;;;;;8.35;67.04;102857.56;4992257;28;11580;-67
2023/04/18 07:54:15;;;;;;;;;22.75;21.75;;;;;8.41;67.17;102863.25;4989872;28;11422;-67
2023/04/18 07:56:42;;;;;;;;;21.75;21.50;;;;;8.49;66.35;102859.94;4955132;28;11557;-67
2023/04/18 07:59:08;;;;;;;;;24.00;22.00;;;;;8.73;66.66;102861.50;4972417;28;11620;-69
2023/04/18 08:01:35;;;;;;;;;19.75;18.00;;;;;8.98;65.65;102853.00;4987068;28;11557;-67
2023/04/18 08:04:01;;;;;;;;;24.00;19.50;;;;;9.28;64.65;102862.03;4987050;28;11641;-67
2023/04/18 08:06:28;;;;;;;;;27.50;20.75;;;;;9.42;64.66;102858.97;4972260;28;11125;-67
2023/04/18 08:08:54;;;;;;;;;23.00;23.00;;;;;9.47;63.26;102851.31;4972197;28;11185;-68
2023/04/18 08:11:21;;;;;;;;;24.00;24.00;;;;;9.40;62.83;102853.72;4976658;28;11099;-68
2023/04/18 08:13:47;;;;;;;;;28.00;22.75;;;;;9.37;63.92;102856.69;4980010;28;11623;-67
2023/04/18 08:16:14;;;;;;;;;22.00;18.75;;;;;9.60;63.88;102853.75;4954264;28;11318;-68
2023/04/18 08:18:43;;;;;;;;;24.25;21.25;;;;;9.52;63.12;102870.59;4971966;28;11229;-68
2023/04/18 08:21:09;;;;;;;;;26.75;22.75;;;;;9.50;64.18;102855.59;4986778;28;11169;-68
2023/04/18 08:23:36;;;;;;;;;20.00;16.50;;;;;9.69;63.66;102860.16;4986926;28;11863;-68
2023/04/18 08:26:02;;;;;;;;;24.00;23.50;;;;;9.78;62.86;102881.69;4976553;28;10876;-68
2023/04/18 08:28:28;;;;;;;;;26.25;23.00;;;;;9.76;62.36;102856.75;5006264;28;11177;-67
2023/04/18 08:30:55;;;;;;;;;22.25;19.75;;;;;9.78;62.35;102862.88;4991098;28;11609;-67
2023/04/18 08:33:23;;;;;;;;;22.00;22.00;;;;;9.85;62.79;102863.16;4991364;28;10852;-67
2023/04/18 08:35:50;;;;;;;;;19.00;16.75;;;;;9.92;62.75;102861.59;4991075;28;10949;-68
2023/04/18 08:38:17;;;;;;;;;23.25;20.25;;;;;10.03;62.54;102860.63;4990160;28;11574;-67
2023/04/18 08:40:44;;;;;;;;;19.50;16.25;;;;;10.22;62.90;102860.63;5001609;28;11046;-68
2023/04/18 08:43:13;;;;;;;;;26.00;23.00;;;;;10.55;61.43;102864.72;4988379;28;10894;-68
2023/04/18 08:45:43;;;;;;;;;18.50;18.00;;;;;10.57;61.82;102869.94;4990800;28;11030;-68
2023/04/18 08:48:12;;;;;;;;;21.50;18.00;;;;;10.44;61.85;102866.72;4989933;28;10780;-68
2023/04/18 08:50:40;;;;;;;;;17.50;17.25;;;;;10.44;62.27;102866.72;4991080;28;10838;-67
2023/04/18 08:53:07;;;;;;;;;17.50;17.50;;;;;10.35;62.31;102865.75;4990888;28;10809;-67
2023/04/18 08:55:34;;;;;;;;;19.25;17.75;;;;;10.25;62.36;102870.25;4971400;28;10680;-67
2023/04/18 08:58:01;;;;;;;;;19.75;16.75;;;;;10.09;62.16;102863.59;4971399;28;10899;-67
2023/04/18 09:00:28;;;;;;;;;25.00;21.00;;;;;10.05;62.77;102864.88;4971308;28;11009;-67
2023/04/18 09:02:58;;;;;;;;;21.75;21.50;;;;;10.03;62.70;102860.63;4971422;28;10991;-67
2023/04/18 09:05:26;;;;;;;;;23.50;21.25;;;;;10.07;63.36;102862.03;4971038;28;11040;-67
2023/04/18 09:07:54;;;;;;;;;18.50;18.00;;;;;10.21;62.59;102861.63;4971439;28;11013;-67
2023/04/18 09:10:28;;;;;;;;;22.50;21.50;;;;;10.23;62.93;102866.84;4956051;28;11239;-68
2023/04/18 09:12:56;;;;;;;;;29.25;26.00;;;;;10.21;61.18;102855.38;4990879;28;11004;-67
2023/04/18 09:15:26;;;;;;;;;21.25;18.75;;;;;10.11;61.55;102866.97;4990413;28;11853;-66
2023/04/18 09:17:57;;;;;;;;;21.50;19.75;;;;;10.12;61.99;102860.59;4990716;28;10811;-68
2023/04/18 09:20:40;;;;;;;;;22.00;21.25;;;;;10.08;62.25;102861.03;4972627;28;11197;-68
2023/04/18 09:23:09;;;;;;;;;16.25;16.25;;;;;10.12;62.75;102859.75;4971145;28;11035;-67
2023/04/18 09:25:45;;;;;;;;;25.25;20.25;;;;;10.18;63.03;102851.13;4985695;28;11482;-67
2023/04/18 09:28:31;;;;;;;;;23.00;18.75;;;;;10.23;61.96;102858.78;4971089;28;11149;-68
2023/04/18 09:31:08;;;;;;;;;22.25;18.25;;;;;10.23;61.47;102850.69;4970937;28;10998;-67
2023/04/18 09:33:35;;;;;;;;;24.75;22.00;;;;;10.24;62.02;102855.94;4977677;28;10965;-67
2023/04/18 09:36:20;;;;;;;;;25.50;23.75;;;;;10.10;62.48;102856.38;4990745;28;11025;-66
2023/04/18 09:38:48;;;;;;;;;21.50;21.25;;;;;10.02;62.46;102864.31;4971031;28;11622;-67
2023/04/18 09:41:16;;;;;;;;;26.00;22.75;;;;;9.96;62.77;102857.63;4971016;28;11087;-68
2023/04/18 09:43:47;;;;;;;;;24.50;23.25;;;;;10.00;63.23;102853.66;4972529;28;11019;-67
2023/04/18 09:46:16;;;;;;;;;22.75;21.25;;;;;10.05;62.87;102845.19;4974671;28;11159;-66
2023/04/18 09:48:42;;;;;;;;;21.00;19.50;;;;;10.11;62.91;102847.31;4992523;28;11129;-67
2023/04/18 09:51:13;;;;;;;;;21.25;19.00;;;;;10.10;62.85;102845.63;4994020;28;11091;-67
2023/04/18 09:53:43;;;;;;;;;25.75;23.75;;;;;10.05;61.84;102856.81;4994185;28;11001;-68
2023/04/18 09:56:24;;;;;;;;;25.50;24.25;;;;;10.05;62.53;102858.66;4993810;28;11229;-68
2023/04/18 09:58:55;;;;;;;;;28.00;21.25;;;;;10.10;63.24;102865.28;4993109;28;11304;-67
2023/04/18 10:01:27;;;;;;;;;20.75;17.00;;;;;10.19;62.83;102851.97;4993997;28;11009;-66
2023/04/18 10:03:55;;;;;;;;;22.50;22.00;;;;;10.28;62.84;102848.47;4989514;28;10999;-67
2023/04/18 10:06:26;;;;;;;;;23.25;22.50;;;;;10.41;62.43;102846.31;4993760;28;11004;-66
2023/04/18 10:08:53;;;;;;;;;25.25;21.00;;;;;10.48;62.13;102842.06;4993738;28;11130;-67
2023/04/18 10:11:20;;;;;;;;;22.50;20.75;;;;;10.54;60.95;102844.19;4993933;28;10999;-67
2023/04/18 10:13:52;;;;;;;;;20.50;17.00;;;;;10.60;61.33;102858.91;4993781;28;11074;-66
2023/04/18 10:16:19;;;;;;;;;25.00;19.00;;;;;10.52;60.97;102848.00;4993678;28;10918;-68
2023/04/18 10:18:48;;;;;;;;;20.75;19.00;;;;;10.61;61.22;102833.66;4993718;28;10856;-66
2023/04/18 10:21:14;;;;;;;;;24.75;21.25;;;;;10.73;61.83;102837.88;4991398;28;11047;-66
2023/04/18 10:23:41;;;;;;;;;22.50;21.75;;;;;10.93;60.26;102835.13;4987422;28;11113;-67
2023/04/18 10:26:10;;;;;;;;;22.50;22.00;;;;;10.89;60.60;102830.03;4973826;28;11127;-67
2023/04/18 10:28:55;;;;;;;;;25.75;19.25;;;;;10.89;60.22;102834.56;4973998;28;10914;-66
2023/04/18 10:31:27;;;;;;;;;19.75;19.00;;;;;10.96;59.57;102830.28;4973792;28;10667;-68
2023/04/18 10:33:56;;;;;;;;;21.25;19.25;;;;;11.02;59.04;102835.09;4976920;28;10880;-66
2023/04/18 10:36:26;;;;;;;;;19.25;18.00;;;;;11.22;59.31;102826.91;4993372;28;10821;-67
2023/04/18 10:39:18;;;;;;;;;28.25;21.75;;;;;11.54;58.93;102821.03;4993500;28;11672;-66
2023/04/18 10:41:49;;;;;;;;;27.00;22.75;;;;;11.85;57.89;102821.56;4993324;28;10889;-67
2023/04/18 10:44:23;;;;;;;;;18.25;15.75;;;;;12.04;57.11;102824.09;4993161;28;11544;-66
2023/04/18 10:46:50;;;;;;;;;20.50;20.00;;;;;11.96;55.87;102813.25;4993263;28;10696;-68
2023/04/18 10:49:26;;;;;;;;;24.00;21.50;;;;;11.62;56.46;102826.53;4993272;28;10780;-67
2023/04/18 10:51:57;;;;;;;;;19.25;17.50;;;;;11.49;57.80;102818.78;4981321;28;10660;-70
2023/04/18 10:54:37;;;;;;;;;23.00;20.50;;;;;11.30;57.52;102814.41;4970917;28;10957;-70
2023/04/18 10:57:06;;;;;;;;;18.00;16.50;;;;;11.16;58.39;102809.50;4973603;28;11071;-70
2023/04/18 10:59:37;;;;;;;;;25.75;21.50;;;;;11.14;59.04;102822.28;4988139;28;10750;-70
2023/04/18 11:02:30;;;;;;;;;27.75;21.00;;;;;11.03;58.06;102819.78;4973584;28;11624;-70
2023/04/18 11:04:59;;;;;;;;;21.75;19.00;;;;;11.06;58.68;102812.25;4973003;28;10911;-69
2023/04/18 11:07:35;;;;;;;;;20.75;18.50;;;;;11.10;59.15;102819.03;4974558;28;10893;-69
2023/04/18 11:10:03;;;;;;;;;32.25;22.75;;;;;11.21;58.21;102812.56;5006274;28;10853;-69
2023/04/18 11:12:32;;;;;;;;;27.00;24.00;;;;;11.33;58.91;102819.47;5012342;28;10871;-69
2023/04/18 11:15:02;;;;;;;;;23.50;22.00;;;;;11.34;58.37;102813.09;5012169;28;10862;-70
2023/04/18 11:17:31;;;;;;;;;22.50;20.00;;;;;11.36;58.23;102811.06;5012108;28;10793;-70
2023/04/18 11:20:10;;;;;;;;;21.50;20.50;;;;;11.40;57.77;102811.63;5012128;28;10908;-69